createdAt,value
2019-05-18T00:01:32.819Z,99.90
2019-05-18T00:04:20.962Z,99.90
2019-05-18T00:06:50.100Z,99.90
2019-05-18T00:09:19.207Z,99.90
2019-05-18T00:11:48.177Z,99.90
2019-05-18T00:14:17.308Z,99.90
2019-05-18T00:16:46.417Z,99.90
2019-05-18T00:19:15.521Z,99.90
2019-05-18T00:21:44.447Z,99.90
2019-05-18T00:24:13.662Z,99.90
2019-05-18T00:26:42.925Z,99.90
2019-05-18T00:29:11.996Z,99.90
2019-05-18T00:31:41.191Z,99.90
2019-05-18T00:34:10.187Z,99.90
2019-05-18T00:36:39.384Z,99.90
2019-05-18T00:39:08.601Z,99.90
2019-05-18T00:41:37.678Z,99.90
2019-05-18T00:44:06.925Z,99.90
2019-05-18T00:46:35.915Z,99.90
2019-05-18T00:49:05.009Z,99.90
2019-05-18T00:51:34.110Z,99.90
2019-05-18T00:54:03.213Z,99.90
2019-05-18T00:56:32.321Z,99.90
2019-05-18T00:59:01.501Z,99.90
2019-05-18T01:01:30.865Z,99.90
2019-05-18T01:04:00.044Z,99.90
2019-05-18T01:06:29.857Z,99.90
2019-05-18T01:08:58.972Z,99.90
2019-05-18T01:11:28.338Z,99.90
2019-05-18T01:13:57.413Z,99.90
2019-05-18T01:16:26.505Z,99.90
2019-05-18T01:18:55.540Z,99.90
2019-05-18T01:21:24.663Z,99.90
2019-05-18T01:23:53.656Z,99.90
2019-05-18T01:26:22.602Z,99.90
2019-05-18T01:28:52.875Z,99.90
2019-05-18T01:31:21.997Z,99.90
2019-05-18T01:33:51.034Z,99.90
2019-05-18T01:36:20.312Z,99.90
2019-05-18T01:38:49.531Z,99.90
2019-05-18T01:41:18.554Z,99.90
2019-05-18T01:43:47.433Z,99.90
2019-05-18T01:46:16.320Z,99.90
2019-05-18T01:48:45.604Z,99.90
2019-05-18T01:51:14.693Z,99.90
2019-05-18T01:53:43.888Z,99.90
2019-05-18T01:56:12.988Z,99.90
2019-05-18T01:58:42.091Z,99.90
2019-05-18T02:01:10.983Z,99.90
2019-05-18T02:03:40.357Z,99.90
2019-05-18T02:06:09.406Z,99.90
2019-05-18T02:08:38.314Z,99.90
2019-05-18T02:11:07.630Z,99.90
2019-05-18T02:13:36.687Z,99.90
2019-05-18T02:16:05.778Z,99.90
2019-05-18T02:18:34.965Z,99.90
2019-05-18T02:21:04.138Z,99.90
2019-05-18T02:23:33.162Z,99.90
2019-05-18T02:26:02.069Z,99.90
2019-05-18T02:28:31.118Z,99.90
2019-05-18T02:31:00.012Z,99.90
2019-05-18T02:33:29.094Z,99.90
2019-05-18T02:35:58.043Z,99.90
2019-05-18T02:38:27.143Z,99.90
2019-05-18T02:40:55.993Z,99.90
2019-05-18T02:43:25.127Z,99.90
2019-05-18T02:45:54.178Z,99.90
2019-05-18T02:48:23.200Z,99.90
2019-05-18T02:50:52.319Z,99.90
2019-05-18T02:53:21.438Z,99.90
2019-05-18T02:55:50.380Z,99.90
2019-05-18T02:58:19.299Z,99.90
2019-05-18T03:00:48.505Z,99.90
2019-05-18T03:03:17.742Z,99.90
2019-05-18T03:05:46.745Z,99.90
2019-05-18T03:08:15.717Z,99.90
2019-05-18T03:10:44.984Z,99.90
2019-05-18T03:13:14.300Z,99.90
2019-05-18T03:15:43.443Z,99.90
2019-05-18T03:18:12.535Z,99.90
2019-05-18T03:20:41.574Z,99.90
2019-05-18T03:23:10.773Z,99.90
2019-05-18T03:25:39.931Z,99.90
2019-05-18T03:28:09.042Z,99.90
2019-05-18T03:30:38.157Z,99.90
2019-05-18T03:33:07.703Z,99.90
2019-05-18T03:35:36.779Z,99.90
2019-05-18T03:38:07.811Z,99.90
2019-05-18T03:40:36.629Z,99.90
2019-05-18T03:43:06.058Z,99.90
2019-05-18T03:45:35.066Z,99.90
2019-05-18T03:48:04.050Z,99.90
2019-05-18T03:50:33.061Z,99.90
2019-05-18T03:53:02.389Z,99.90
2019-05-18T03:55:31.749Z,99.90
2019-05-18T03:58:00.941Z,99.90
2019-05-18T04:00:30.191Z,99.90
2019-05-18T04:02:59.557Z,99.90
2019-05-18T04:05:28.590Z,99.90
2019-05-18T04:07:57.856Z,99.90
2019-05-18T04:10:27.876Z,99.90
2019-05-18T04:12:57.164Z,99.90
2019-05-18T04:15:27.281Z,99.90
2019-05-18T04:17:56.446Z,99.90
2019-05-18T04:20:25.917Z,99.90
2019-05-18T04:22:54.977Z,99.90
2019-05-18T04:25:24.505Z,99.90
2019-05-18T04:27:54.014Z,99.90
2019-05-18T04:30:23.172Z,99.90
2019-05-18T04:32:52.326Z,99.90
2019-05-18T04:35:21.808Z,99.90
2019-05-18T04:37:50.995Z,99.90
2019-05-18T04:40:20.138Z,99.90
2019-05-18T04:42:49.257Z,99.90
2019-05-18T04:45:19.655Z,99.90
2019-05-18T04:47:49.104Z,99.90
2019-05-18T04:50:18.252Z,99.90
2019-05-18T04:52:48.101Z,99.90
2019-05-18T04:55:17.322Z,99.90
2019-05-18T04:57:46.268Z,99.90
2019-05-18T05:00:15.484Z,99.90
2019-05-18T05:02:44.853Z,99.90
2019-05-18T05:05:14.410Z,99.90
2019-05-18T05:07:43.524Z,99.90
2019-05-18T05:10:13.243Z,99.90
2019-05-18T05:12:42.225Z,99.90
2019-05-18T05:15:11.414Z,99.90
2019-05-18T05:17:40.667Z,99.90
2019-05-18T05:20:19.282Z,99.90
2019-05-18T05:22:41.217Z,99.90
2019-05-18T05:25:13.156Z,99.90
2019-05-18T05:27:43.387Z,99.90
2019-05-18T05:30:13.229Z,99.90
2019-05-18T05:32:42.451Z,99.90
2019-05-18T05:35:12.321Z,99.90
2019-05-18T05:37:41.948Z,99.90
2019-05-18T05:40:11.432Z,99.90
2019-05-18T05:42:40.547Z,99.90
2019-05-18T05:45:11.106Z,99.90
2019-05-18T05:47:40.309Z,99.90
2019-05-18T05:50:10.494Z,99.90
2019-05-18T05:52:40.261Z,99.90
2019-05-18T05:55:10.442Z,99.90
2019-05-18T05:57:39.766Z,99.90
2019-05-18T06:00:09.902Z,99.90
2019-05-18T06:02:40.130Z,99.90
2019-05-18T06:05:12.157Z,99.90
2019-05-18T06:07:43.121Z,99.90
2019-05-18T06:10:12.771Z,99.90
2019-05-18T06:12:42.331Z,99.90
2019-05-18T06:15:13.073Z,99.90
2019-05-18T06:17:43.756Z,99.90
2019-05-18T06:20:14.181Z,99.90
2019-05-18T06:22:44.806Z,99.90
2019-05-18T06:25:17.350Z,99.90
2019-05-18T06:27:50.884Z,99.90
2019-05-18T06:30:20.414Z,99.90
2019-05-18T06:32:51.822Z,99.90
2019-05-18T06:35:22.204Z,99.90
2019-05-18T06:37:53.365Z,99.90
2019-05-18T06:40:22.653Z,99.90
2019-05-18T06:42:52.699Z,99.90
2019-05-18T06:45:22.288Z,99.90
2019-05-18T06:47:51.473Z,99.90
2019-05-18T06:50:28.296Z,99.90
2019-05-18T06:52:58.395Z,99.90
2019-05-18T06:55:28.008Z,99.90
2019-05-18T06:58:00.240Z,99.90
2019-05-18T07:00:37.450Z,99.90
2019-05-18T07:03:10.624Z,99.90
2019-05-18T07:06:14.163Z,99.90
2019-05-18T07:08:45.199Z,99.90
2019-05-18T07:11:14.779Z,99.90
2019-05-18T07:13:44.294Z,99.90
2019-05-18T07:16:15.936Z,99.90
2019-05-18T07:18:45.671Z,99.90
2019-05-18T07:21:22.240Z,99.90
2019-05-18T07:23:48.470Z,99.90
2019-05-18T07:26:17.933Z,99.90
2019-05-18T07:29:06.890Z,99.90
2019-05-18T07:31:36.302Z,99.90
2019-05-18T07:34:05.687Z,99.90
2019-05-18T07:36:34.880Z,99.90
2019-05-18T07:39:08.074Z,99.90
2019-05-18T07:41:46.361Z,99.90
2019-05-18T07:44:08.917Z,99.90
2019-05-18T07:46:38.777Z,99.90
2019-05-18T07:49:08.197Z,99.90
2019-05-18T07:51:38.343Z,99.90
2019-05-18T07:54:07.908Z,99.90
2019-05-18T07:56:37.603Z,99.90
2019-05-18T07:59:07.246Z,99.90
2019-05-18T08:01:36.903Z,99.90
2019-05-18T08:04:07.746Z,99.90
2019-05-18T08:06:37.349Z,99.90
2019-05-18T08:09:12.668Z,99.90
2019-05-18T08:11:42.318Z,99.90
2019-05-18T08:14:21.629Z,99.50
2019-05-18T08:16:52.314Z,99.10
2019-05-18T08:19:22.373Z,98.50
2019-05-18T08:21:53.627Z,98.70
2019-05-18T08:24:27.387Z,98.40
2019-05-18T08:26:56.549Z,98.00
2019-05-18T08:29:26.748Z,97.90
2019-05-18T08:31:56.245Z,97.70
2019-05-18T08:34:25.571Z,97.20
2019-05-18T08:36:55.139Z,97.20
2019-05-18T08:39:24.684Z,97.70
2019-05-18T08:41:56.479Z,97.60
2019-05-18T08:44:25.617Z,99.90
2019-05-18T08:46:55.112Z,99.80
2019-05-18T08:49:24.683Z,98.50
2019-05-18T08:52:07.493Z,99.00
2019-05-18T08:54:30.947Z,98.00
2019-05-18T08:57:00.010Z,97.70
2019-05-18T08:59:29.349Z,97.20
2019-05-18T09:01:58.531Z,96.60
2019-05-18T09:04:28.643Z,96.60
2019-05-18T09:06:58.061Z,96.10
2019-05-18T09:09:29.418Z,96.10
2019-05-18T09:11:58.458Z,96.20
2019-05-18T09:14:29.958Z,95.60
2019-05-18T09:16:59.535Z,95.30
2019-05-18T09:19:28.822Z,95.30
2019-05-18T09:21:58.140Z,94.90
2019-05-18T09:24:27.351Z,95.10
2019-05-18T09:26:56.491Z,95.20
2019-05-18T09:29:25.977Z,94.60
2019-05-18T09:31:55.916Z,94.60
2019-05-18T09:34:26.573Z,94.10
2019-05-18T09:36:56.262Z,93.80
2019-05-18T09:39:27.609Z,93.70
2019-05-18T09:41:57.563Z,93.50
2019-05-18T09:44:26.582Z,92.60
2019-05-18T09:46:55.865Z,92.50
2019-05-18T09:49:25.188Z,92.50
2019-05-18T09:51:54.228Z,92.20
2019-05-18T09:54:23.373Z,92.40
2019-05-18T09:56:52.568Z,92.60
2019-05-18T09:59:21.974Z,92.80
2019-05-18T10:01:51.203Z,92.50
2019-05-18T10:04:20.380Z,92.20
2019-05-18T10:06:49.562Z,91.70
2019-05-18T10:09:19.279Z,91.30
2019-05-18T10:11:48.627Z,91.00
2019-05-18T10:18:12.431Z,86.90
2019-05-18T10:20:41.895Z,83.30
2019-05-18T10:23:13.569Z,81.80
2019-05-18T10:25:42.294Z,81.10
2019-05-18T10:28:11.822Z,81.00
2019-05-18T10:30:41.884Z,79.50
2019-05-18T10:33:10.971Z,79.80
2019-05-18T10:35:40.466Z,79.90
2019-05-18T10:38:09.704Z,79.80
2019-05-18T10:40:38.905Z,78.40
2019-05-18T10:43:08.363Z,78.20
2019-05-18T10:45:37.447Z,78.60
2019-05-18T10:48:06.864Z,77.80
2019-05-18T10:50:36.008Z,78.00
2019-05-18T10:53:05.318Z,78.20
2019-05-18T10:55:34.744Z,78.70
2019-05-18T10:58:06.156Z,77.60
2019-05-18T11:00:37.150Z,76.70
2019-05-18T11:03:06.602Z,77.30
2019-05-18T11:05:36.019Z,76.70
2019-05-18T11:08:05.258Z,76.80
2019-05-18T11:10:34.616Z,77.30
2019-05-18T11:13:03.683Z,77.20
2019-05-18T11:15:32.850Z,77.50
2019-05-18T11:18:07.577Z,77.30
2019-05-18T11:20:36.753Z,77.10
2019-05-18T11:23:06.141Z,76.20
2019-05-18T11:25:35.276Z,76.40
2019-05-18T11:28:04.699Z,76.30
2019-05-18T11:30:34.197Z,76.50
2019-05-18T11:33:03.324Z,75.50
2019-05-18T11:35:36.095Z,76.00
2019-05-18T11:38:05.575Z,74.80
2019-05-18T11:40:34.877Z,74.40
2019-05-18T11:43:04.372Z,73.50
2019-05-18T11:45:34.399Z,73.20
2019-05-18T11:48:03.946Z,72.90
2019-05-18T11:50:33.318Z,71.70
2019-05-18T11:53:03.016Z,71.70
2019-05-18T11:55:32.172Z,70.20
2019-05-18T11:58:01.335Z,68.60
2019-05-18T12:00:31.181Z,68.30
2019-05-18T12:03:00.228Z,66.30
2019-05-18T12:05:31.686Z,66.10
2019-05-18T12:08:01.018Z,64.90
2019-05-18T12:10:30.389Z,64.60
2019-05-18T12:13:00.190Z,62.30
2019-05-18T12:15:30.038Z,61.90
2019-05-18T12:17:59.849Z,62.10
2019-05-18T12:20:31.256Z,61.90
2019-05-18T12:23:00.348Z,61.60
2019-05-18T12:25:30.879Z,62.40
2019-05-18T12:28:00.311Z,62.40
2019-05-18T12:30:29.544Z,61.90
2019-05-18T12:32:59.247Z,61.00
2019-05-18T12:35:28.397Z,60.10
2019-05-18T12:37:57.597Z,59.50
2019-05-18T12:40:27.111Z,59.10
2019-05-18T12:42:56.485Z,58.80
2019-05-18T12:45:26.150Z,58.20
2019-05-18T12:47:55.481Z,58.20
2019-05-18T12:50:26.603Z,58.30
2019-05-18T12:52:56.016Z,58.50
2019-05-18T12:55:25.353Z,57.90
2019-05-18T12:57:54.554Z,58.00
2019-05-18T13:00:24.551Z,57.20
2019-05-18T13:02:53.681Z,56.80
2019-05-18T13:05:23.597Z,56.20
2019-05-18T13:07:53.394Z,55.30
2019-05-18T13:10:23.076Z,55.30
2019-05-18T13:12:52.377Z,55.80
2019-05-18T13:15:22.206Z,55.20
2019-05-18T13:17:51.533Z,54.80
2019-05-18T13:20:21.831Z,54.60
2019-05-18T13:22:51.058Z,54.70
2019-05-18T13:25:21.073Z,54.70
2019-05-18T13:27:50.424Z,54.00
2019-05-18T13:30:21.838Z,54.60
2019-05-18T13:32:51.021Z,54.60
2019-05-18T13:35:20.301Z,54.30
2019-05-18T13:37:49.412Z,54.20
2019-05-18T13:40:20.414Z,53.90
2019-05-18T13:42:49.701Z,53.30
2019-05-18T13:45:19.290Z,52.30
2019-05-18T13:47:48.503Z,52.10
2019-05-18T13:50:18.130Z,52.00
2019-05-18T13:52:47.248Z,52.40
2019-05-18T13:55:19.461Z,51.90
2019-05-18T13:57:48.497Z,52.70
2019-05-18T14:00:18.310Z,50.80
2019-05-18T14:02:47.437Z,51.30
2019-05-18T14:05:17.234Z,51.20
2019-05-18T14:07:47.052Z,50.80
2019-05-18T14:10:18.356Z,50.70
2019-05-18T14:12:52.100Z,50.80
2019-05-18T14:15:25.606Z,51.30
2019-05-18T14:17:54.878Z,51.10
2019-05-18T14:20:26.296Z,51.00
2019-05-18T14:22:55.322Z,51.00
2019-05-18T14:25:27.428Z,50.70
2019-05-18T14:27:56.960Z,51.60
2019-05-18T14:30:26.771Z,51.10
2019-05-18T14:32:55.881Z,49.90
2019-05-18T14:35:26.603Z,49.70
2019-05-18T14:37:56.010Z,49.20
2019-05-18T14:40:25.247Z,50.20
2019-05-18T14:42:54.401Z,50.50
2019-05-18T14:45:24.238Z,50.70
2019-05-18T14:47:53.845Z,51.00
2019-05-18T14:50:24.066Z,51.80
2019-05-18T14:52:54.008Z,51.30
2019-05-18T14:55:33.814Z,51.10
2019-05-18T14:58:18.538Z,51.00
2019-05-18T15:00:47.746Z,51.00
2019-05-18T15:03:17.166Z,50.90
2019-05-18T15:05:46.514Z,50.80
2019-05-18T15:08:15.968Z,50.10
2019-05-18T15:10:45.141Z,49.80
2019-05-18T15:13:14.470Z,49.90
2019-05-18T15:15:43.879Z,49.80
2019-05-18T15:18:13.074Z,49.50
2019-05-18T15:20:42.904Z,49.40
2019-05-18T15:23:12.405Z,49.30
2019-05-18T15:25:50.139Z,49.20
2019-05-18T15:28:12.168Z,49.20
2019-05-18T15:30:41.365Z,48.90
2019-05-18T15:33:10.769Z,49.20
2019-05-18T15:35:40.296Z,49.30
2019-05-18T15:38:09.586Z,49.00
2019-05-18T15:40:38.877Z,49.20
2019-05-18T15:43:08.473Z,49.20
2019-05-18T15:45:38.149Z,48.70
2019-05-18T15:48:07.341Z,48.90
2019-05-18T15:50:38.600Z,48.90
2019-05-18T15:53:08.180Z,49.50
2019-05-18T15:55:37.621Z,49.00
2019-05-18T15:58:06.993Z,48.90
2019-05-18T16:00:36.427Z,48.50
2019-05-18T16:03:05.608Z,48.60
2019-05-18T16:05:34.850Z,48.80
2019-05-18T16:08:04.204Z,48.60
2019-05-18T16:10:33.298Z,48.10
2019-05-18T16:13:02.472Z,48.30
2019-05-18T16:15:31.660Z,48.20
2019-05-18T16:18:00.983Z,48.40
2019-05-18T16:20:30.649Z,48.40
2019-05-18T16:22:59.858Z,48.40
2019-05-18T16:25:31.815Z,48.80
2019-05-18T16:28:03.202Z,48.50
2019-05-18T16:30:32.607Z,48.50
2019-05-18T16:33:01.838Z,48.80
2019-05-18T16:35:31.241Z,48.50
2019-05-18T16:38:00.468Z,48.90
2019-05-18T16:40:29.737Z,48.50
2019-05-18T16:43:03.526Z,49.00
2019-05-18T16:45:32.672Z,49.20
2019-05-18T16:48:01.931Z,49.00
2019-05-18T16:50:36.601Z,49.10
2019-05-18T16:53:06.034Z,49.50
2019-05-18T16:55:35.466Z,49.60
2019-05-18T16:58:04.745Z,49.70
2019-05-18T17:00:34.070Z,49.90
2019-05-18T17:03:03.425Z,50.00
2019-05-18T17:05:32.936Z,50.20
2019-05-18T17:08:02.224Z,50.20
2019-05-18T17:10:31.949Z,49.80
2019-05-18T17:13:01.218Z,49.80
2019-05-18T17:15:30.452Z,49.80
2019-05-18T17:18:00.293Z,49.80
2019-05-18T17:20:29.574Z,49.90
2019-05-18T17:23:19.092Z,50.10
2019-05-18T17:25:48.276Z,50.20
2019-05-18T17:28:17.519Z,50.10
2019-05-18T17:30:46.861Z,50.40
2019-05-18T17:33:16.239Z,50.90
2019-05-18T17:35:59.449Z,50.50
2019-05-18T17:38:16.590Z,50.20
2019-05-18T17:40:45.892Z,50.50
2019-05-18T17:43:15.483Z,50.60
2019-05-18T17:45:44.814Z,50.50
2019-05-18T17:48:21.364Z,50.60
2019-05-18T17:50:51.047Z,50.60
2019-05-18T17:53:26.053Z,50.40
2019-05-18T17:55:55.881Z,50.50
2019-05-18T17:58:26.214Z,50.90
2019-05-18T18:00:55.399Z,50.90
2019-05-18T18:03:24.924Z,50.90
2019-05-18T18:05:54.091Z,51.00
2019-05-18T18:08:23.453Z,51.20
2019-05-18T18:10:53.243Z,51.30
2019-05-18T18:13:22.994Z,51.40
2019-05-18T18:15:53.655Z,52.00
2019-05-18T18:18:26.867Z,52.20
2019-05-18T18:21:00.688Z,52.10
2019-05-18T18:23:54.524Z,52.30
2019-05-18T18:26:26.339Z,52.50
2019-05-18T18:28:56.478Z,52.40
2019-05-18T18:31:28.748Z,52.60
2019-05-18T18:33:57.983Z,52.80
2019-05-18T18:36:28.488Z,52.90
2019-05-18T18:39:04.360Z,53.00
2019-05-18T18:41:33.915Z,53.10
2019-05-18T18:44:27.955Z,53.30
2019-05-18T18:46:58.508Z,53.40
2019-05-18T18:49:47.749Z,53.70
2019-05-18T18:52:16.958Z,53.80
2019-05-18T18:55:01.217Z,54.00
2019-05-18T18:57:40.629Z,54.20
2019-05-18T19:00:01.412Z,54.20
2019-05-18T19:02:32.942Z,54.50
2019-05-18T19:05:02.698Z,54.60
2019-05-18T19:07:32.101Z,54.80
2019-05-18T19:10:01.480Z,54.90
2019-05-18T19:12:31.732Z,55.20
2019-05-18T19:15:00.957Z,55.20
2019-05-18T19:17:30.203Z,55.40
2019-05-18T19:19:59.865Z,56.20
2019-05-18T19:22:29.263Z,55.70
2019-05-18T19:24:58.695Z,55.80
2019-05-18T19:27:55.029Z,56.00
2019-05-18T19:30:22.275Z,56.20
2019-05-18T19:32:51.540Z,56.50
2019-05-18T19:35:21.085Z,56.80
2019-05-18T19:37:50.615Z,57.00
2019-05-18T19:40:21.334Z,57.30
2019-05-18T19:42:51.408Z,57.40
2019-05-18T19:45:21.262Z,57.60
2019-05-18T19:47:50.862Z,57.70
2019-05-18T19:50:20.494Z,57.80
2019-05-18T19:52:50.411Z,57.90
2019-05-18T19:55:19.858Z,58.00
2019-05-18T19:57:50.364Z,58.10
2019-05-18T20:00:20.079Z,58.40
2019-05-18T20:02:51.497Z,58.50
2019-05-18T20:05:20.807Z,58.90
2019-05-18T20:07:50.084Z,59.10
2019-05-18T20:10:20.064Z,59.30
2019-05-18T20:12:50.426Z,59.40
2019-05-18T20:15:22.067Z,59.60
2019-05-18T20:17:56.947Z,59.60
2019-05-18T20:20:26.169Z,59.80
2019-05-18T20:22:55.828Z,60.00
2019-05-18T20:25:26.660Z,60.40
2019-05-18T20:28:23.399Z,60.50
2019-05-18T20:30:47.422Z,60.70
2019-05-18T20:33:17.264Z,61.00
2019-05-18T20:35:48.423Z,61.00
2019-05-18T20:38:22.571Z,61.50
2019-05-18T20:40:51.838Z,62.10
2019-05-18T20:43:21.547Z,62.00
2019-05-18T20:45:51.685Z,61.90
2019-05-18T20:48:24.875Z,62.00
2019-05-18T20:50:55.182Z,62.20
2019-05-18T20:53:26.029Z,62.30
2019-05-18T20:55:55.343Z,62.50
2019-05-18T20:58:38.735Z,62.70
2019-05-18T21:00:56.083Z,62.90
2019-05-18T21:03:27.084Z,63.10
2019-05-18T21:05:56.650Z,63.30
2019-05-18T21:08:26.447Z,63.50
2019-05-18T21:11:00.036Z,63.60
2019-05-18T21:13:30.090Z,63.90
2019-05-18T21:16:04.590Z,64.00
2019-05-18T21:18:35.989Z,64.20
2019-05-18T21:21:05.379Z,64.30
2019-05-18T21:23:36.047Z,64.30
2019-05-18T21:26:06.133Z,64.20
2019-05-18T21:28:36.038Z,64.40
2019-05-18T21:31:11.542Z,64.70
2019-05-18T21:33:45.250Z,64.80
2019-05-18T21:36:24.078Z,65.00
2019-05-18T21:38:56.341Z,65.10
2019-05-18T21:41:28.022Z,65.30
2019-05-18T21:43:57.444Z,65.40
2019-05-18T21:46:27.047Z,65.60
2019-05-18T21:48:56.451Z,65.70
2019-05-18T21:51:26.011Z,66.00
2019-05-18T21:53:55.162Z,66.20
2019-05-18T21:56:24.788Z,66.40
2019-05-18T21:58:53.876Z,66.50
2019-05-18T22:01:23.298Z,66.50
2019-05-18T22:03:52.708Z,66.70
2019-05-18T22:06:21.957Z,66.90
2019-05-18T22:08:51.487Z,67.30
2019-05-18T22:11:21.232Z,67.40
2019-05-18T22:13:50.609Z,67.70
2019-05-18T22:16:19.879Z,67.70
2019-05-18T22:18:49.443Z,67.70
2019-05-18T22:21:18.569Z,67.90
2019-05-18T22:23:47.806Z,68.00
2019-05-18T22:26:16.980Z,68.30
2019-05-18T22:28:46.162Z,68.60
2019-05-18T22:31:19.478Z,68.90
2019-05-18T22:33:47.529Z,69.00
2019-05-18T22:36:17.971Z,69.10
2019-05-18T22:38:47.383Z,69.50
2019-05-18T22:41:17.410Z,69.60
2019-05-18T22:43:46.607Z,69.80
2019-05-18T22:46:15.915Z,69.90
2019-05-18T22:48:45.052Z,70.00
2019-05-18T22:51:14.198Z,70.20
2019-05-18T22:53:46.366Z,70.30
2019-05-18T22:56:14.441Z,71.10
2019-05-18T22:58:43.510Z,71.10
2019-05-18T23:01:12.708Z,71.50
2019-05-18T23:03:41.856Z,71.80
2019-05-18T23:06:11.040Z,71.90
2019-05-18T23:08:40.175Z,72.20
2019-05-18T23:11:11.771Z,72.20
2019-05-18T23:13:41.121Z,72.50
2019-05-18T23:16:12.804Z,72.70
2019-05-18T23:18:55.870Z,72.90
2019-05-18T23:21:12.894Z,72.90
2019-05-18T23:23:42.100Z,73.20
2019-05-18T23:26:11.809Z,73.30
2019-05-18T23:28:41.149Z,73.60
2019-05-18T23:31:10.270Z,73.90
2019-05-18T23:33:39.522Z,74.10
2019-05-18T23:36:09.401Z,74.30
2019-05-18T23:38:38.666Z,74.40
2019-05-18T23:41:08.275Z,74.70
2019-05-18T23:43:37.853Z,74.90
2019-05-18T23:46:07.178Z,75.10
2019-05-18T23:48:36.398Z,75.60
2019-05-18T23:51:05.501Z,75.80
2019-05-18T23:53:34.871Z,76.20
2019-05-18T23:56:04.250Z,76.30
2019-05-18T23:58:33.633Z,76.90
